This is the latest recevied weather packets stored in our database for station/object N5SOR-1. If no packets are shown the sender has not sent any weather packets the latest 10 day(s).
| Time | Temp. | Humidity | Pressure | Rain* | Wind** | Luminosity | Snow |
|---|---|---|---|---|---|---|---|
| 1777378345 | 22.22° C | 30% | 1009.9 hPa | 0 mm | - | 0 W/m² | - |
| 1777377683 | 21.67° C | 37% | 1009.5 hPa | 0 mm | - | 0 W/m² | - |
| 1777377022 | 21.67° C | 40% | 1009.3 hPa | 0 mm | - | 0 W/m² | - |
| 1777376362 | 21.67° C | 44% | 1008.9 hPa | 0 mm | - | 0 W/m² | - |
| 1777375701 | 21.67° C | 47% | 1008.7 hPa | 0 mm | - | 0 W/m² | - |
| 1777375041 | 22.78° C | 47% | 1008.5 hPa | 0 mm | - | 0 W/m² | - |
| 1777374380 | 22.78° C | 48% | 1008.3 hPa | 0 mm | - | 0 W/m² | - |
| 1777373720 | 22.78° C | 50% | 1008.2 hPa | 0 mm | - | 0 W/m² | - |
| 1777373060 | 22.22° C | 49% | 1008.3 hPa | 0 mm | - | 0 W/m² | - |
| 1777372398 | 22.78° C | 48% | 1008.3 hPa | 0 mm | - | 0 W/m² | - |
| 1777371737 | 22.78° C | 48% | 1008.2 hPa | 0 mm | - | 0 W/m² | - |
| 1777371077 | 22.22° C | 49% | 1008.3 hPa | 0 mm | - | 0 W/m² | - |
| 1777370416 | 22.78° C | 51% | 1008.2 hPa | 0 mm | - | 0 W/m² | - |
| 1777369756 | 22.78° C | 51% | 1008.3 hPa | 0 mm | - | 0 W/m² | - |
| 1777369095 | 23.89° C | 50% | 1008.2 hPa | 0 mm | - | 0 W/m² | - |
| 1777368434 | 23.89° C | 50% | 1008.3 hPa | 0 mm | - | 0 W/m² | - |
| 1777367774 | 23.89° C | 54% | 1008.1 hPa | 0 mm | - | 0 W/m² | - |
| 1777367113 | 24.44° C | 54% | 1008.2 hPa | 0 mm | - | 0 W/m² | - |
| 1777366452 | 23.89° C | 54% | 1008.1 hPa | 0 mm | - | 0 W/m² | - |
| 1777365792 | 24.44° C | 54% | 1008.1 hPa | 0 mm | - | 0 W/m² | - |
| 1777365499 | 26.11° C | 36% | 1007.8 hPa | 0 mm | - | 0 W/m² | - |
| 1777365131 | 26.11° C | 36% | 1007.8 hPa | 0 mm | - | 0 W/m² | - |
| 1777364470 | 26.11° C | 37% | 1007.6 hPa | 0 mm | - | 0 W/m² | - |
| 1777363810 | 25.56° C | 45% | 1007.6 hPa | 0 mm | - | 0 W/m² | - |
| 1777362489 | 23.89° C | 61% | 1007.8 hPa | 0 mm | - | 0 W/m² | - |
* Rain latest hour (hover to see other rain measurements)
** Current wind speed in m/s (hover to see current wind gust speed)